Augusta, Arkansas
Current Conditions -  °F | °C
As of 1:56 PM on Monday 24 Nov 2014 (Local Time) from KSRC Reporting Station
Clear Clear  
Wind Chill: 58°   Ceiling: Unl
Heat Index: 58°   Visibility: 10mi
Dew Point: 28°   Wind: 13mph
Humidity: 32%   Direction: 260°W
Pressure: 29.89"   Gusts: 22mph
Location:  35.28°N, 91.37°W
Report Text: KSRC 241956Z AUTO 26011G19KT 10SM CLR 14/M02 A2989 RMK AO2 SLP128 T01441022 TSNO
Loading
Personal Weather Stations






























Interactive Weather Map New forecast layout! Learn more

10-Day Weather Forecast

Advertisements
Track Severe Weather on mobile